createdAt,value
2023-05-15T00:00:47.222Z,13.42
2023-05-15T00:03:33.585Z,13.40
2023-05-15T00:06:06.309Z,13.42
2023-05-15T00:08:38.540Z,13.42
2023-05-15T00:11:10.795Z,13.42
2023-05-15T00:13:43.125Z,13.47
2023-05-15T00:16:15.353Z,13.53
2023-05-15T00:18:47.687Z,13.60
2023-05-15T00:21:20.060Z,13.61
2023-05-15T00:23:54.154Z,13.69
2023-05-15T00:26:27.316Z,13.73
2023-05-15T00:28:59.556Z,13.76
2023-05-15T00:31:33.310Z,13.78
2023-05-15T00:34:05.508Z,13.76
2023-05-15T00:36:37.847Z,13.79
2023-05-15T00:39:10.092Z,13.77
2023-05-15T00:41:44.926Z,13.75
2023-05-15T00:44:20.208Z,13.76
2023-05-15T00:46:54.383Z,13.77
2023-05-15T00:49:29.627Z,13.75
2023-05-15T00:52:03.908Z,13.74
2023-05-15T00:54:36.667Z,13.72
2023-05-15T00:57:11.854Z,13.68
2023-05-15T00:59:46.865Z,13.60
2023-05-15T01:02:21.277Z,13.47
2023-05-15T01:04:53.590Z,13.33
2023-05-15T01:07:25.907Z,13.21
2023-05-15T01:09:59.227Z,13.09
2023-05-15T01:12:33.433Z,12.98
2023-05-15T01:15:06.287Z,12.87
2023-05-15T01:17:38.668Z,12.83
2023-05-15T01:20:14.806Z,12.84
2023-05-15T01:22:57.063Z,12.87
2023-05-15T01:26:04.803Z,12.89
2023-05-15T01:28:41.236Z,12.92
2023-05-15T01:31:17.922Z,12.93
2023-05-15T01:33:56.993Z,12.98
2023-05-15T01:36:37.331Z,13.02
2023-05-15T01:39:12.328Z,13.07
2023-05-15T01:41:52.656Z,13.11
2023-05-15T01:44:29.660Z,13.12
2023-05-15T01:47:06.585Z,13.13
2023-05-15T01:49:39.818Z,13.13
2023-05-15T01:52:18.911Z,13.12
2023-05-15T01:54:53.038Z,13.11
2023-05-15T01:57:26.829Z,13.10
2023-05-15T02:00:00.698Z,13.10
2023-05-15T02:02:34.216Z,13.06
2023-05-15T02:05:08.905Z,13.03
2023-05-15T02:07:42.496Z,12.97
2023-05-15T02:10:15.776Z,12.91
2023-05-15T02:12:49.633Z,12.85
2023-05-15T02:15:23.407Z,12.81
2023-05-15T02:17:56.221Z,12.78
2023-05-15T02:20:28.340Z,12.74
2023-05-15T02:23:00.372Z,12.71
2023-05-15T02:25:44.499Z,12.70
2023-05-15T02:28:25.612Z,12.71
2023-05-15T02:31:02.927Z,12.67
2023-05-15T02:33:50.294Z,12.63
2023-05-15T02:36:26.598Z,12.55
2023-05-15T02:39:00.141Z,12.55
2023-05-15T02:41:35.511Z,12.47
2023-05-15T02:44:08.844Z,12.40
2023-05-15T02:46:42.594Z,12.38
2023-05-15T02:49:15.538Z,12.36
2023-05-15T02:51:47.818Z,12.33
2023-05-15T02:54:21.251Z,12.33
2023-05-15T02:56:53.414Z,12.36
2023-05-15T02:59:25.997Z,12.39
2023-05-15T03:01:58.310Z,12.35
2023-05-15T03:04:30.462Z,12.36
2023-05-15T03:07:02.740Z,12.31
2023-05-15T03:09:34.898Z,12.32
2023-05-15T03:12:07.990Z,12.29
2023-05-15T03:14:40.214Z,12.35
2023-05-15T03:17:12.912Z,12.36
2023-05-15T03:19:45.139Z,12.35
2023-05-15T03:22:17.633Z,12.29
2023-05-15T03:24:50.095Z,12.25
2023-05-15T03:27:22.262Z,12.22
2023-05-15T03:29:54.554Z,12.12
2023-05-15T03:32:26.845Z,12.00
2023-05-15T03:34:58.917Z,11.90
2023-05-15T03:37:31.368Z,11.87
2023-05-15T03:40:04.631Z,11.86
2023-05-15T03:42:37.096Z,11.84
2023-05-15T03:45:11.374Z,11.85
2023-05-15T03:47:44.084Z,11.86
2023-05-15T03:50:16.530Z,11.86
2023-05-15T03:52:48.916Z,11.86
2023-05-15T03:55:21.060Z,11.87
2023-05-15T03:57:53.348Z,11.89
2023-05-15T04:00:26.239Z,11.91
2023-05-15T04:02:58.754Z,11.93
2023-05-15T04:05:31.183Z,11.95
2023-05-15T04:08:03.466Z,11.95
2023-05-15T04:10:35.610Z,11.96
2023-05-15T04:13:07.988Z,11.99
2023-05-15T04:15:41.764Z,12.02
2023-05-15T04:18:13.997Z,12.05
2023-05-15T04:20:46.206Z,12.10
2023-05-15T04:23:18.368Z,12.16
2023-05-15T04:25:51.528Z,12.23
2023-05-15T04:28:23.832Z,12.30
2023-05-15T04:30:56.078Z,12.38
2023-05-15T04:33:28.468Z,12.45
2023-05-15T04:36:00.756Z,12.48
2023-05-15T04:38:33.425Z,12.53
2023-05-15T04:41:05.879Z,12.57
2023-05-15T04:43:38.306Z,12.60
2023-05-15T04:46:11.702Z,12.60
2023-05-15T04:48:44.039Z,12.66
2023-05-15T04:51:16.407Z,12.72
2023-05-15T04:53:48.454Z,12.81
2023-05-15T04:56:21.447Z,12.90
2023-05-15T04:58:53.752Z,12.97
2023-05-15T05:01:26.128Z,13.02
2023-05-15T05:03:58.338Z,13.09
2023-05-15T05:06:30.794Z,13.13
2023-05-15T05:09:03.455Z,13.17
2023-05-15T05:11:35.985Z,13.21
2023-05-15T05:14:08.697Z,13.24
2023-05-15T05:16:41.756Z,13.26
2023-05-15T05:19:14.174Z,13.31
2023-05-15T05:21:47.141Z,13.38
2023-05-15T05:24:19.686Z,13.44
2023-05-15T05:26:52.574Z,13.51
2023-05-15T05:29:25.022Z,13.59
2023-05-15T05:31:57.456Z,13.68
2023-05-15T05:34:30.145Z,13.76
2023-05-15T05:37:02.691Z,13.87
2023-05-15T05:39:35.137Z,13.93
2023-05-15T05:42:08.321Z,14.02
2023-05-15T05:44:40.493Z,14.10
2023-05-15T05:47:12.851Z,14.20
2023-05-15T05:49:48.226Z,14.29
2023-05-15T05:52:20.542Z,14.40
2023-05-15T05:54:52.756Z,14.51
2023-05-15T05:57:25.027Z,14.59
2023-05-15T05:59:57.534Z,14.70
2023-05-15T06:02:29.912Z,14.78
2023-05-15T06:05:02.126Z,14.87
2023-05-15T06:07:34.354Z,14.94
2023-05-15T06:10:09.774Z,15.01
2023-05-15T06:12:42.598Z,15.07
2023-05-15T06:15:15.718Z,15.12
2023-05-15T06:17:47.817Z,15.18
2023-05-15T06:20:22.029Z,15.25
2023-05-15T06:22:54.267Z,15.31
2023-05-15T06:25:26.895Z,15.42
2023-05-15T06:27:59.047Z,15.56
2023-05-15T06:30:31.331Z,15.76
2023-05-15T06:33:03.722Z,15.89
2023-05-15T06:35:35.889Z,16.02
2023-05-15T06:38:08.322Z,16.15
2023-05-15T06:40:40.557Z,16.30
2023-05-15T06:43:12.694Z,16.47
2023-05-15T06:45:44.916Z,16.65
2023-05-15T06:48:17.183Z,16.84
2023-05-15T06:50:49.493Z,17.05
2023-05-15T06:53:21.965Z,17.23
2023-05-15T06:55:54.309Z,17.44
2023-05-15T06:58:27.036Z,17.69
2023-05-15T07:00:59.520Z,17.89
2023-05-15T07:03:33.263Z,18.06
2023-05-15T07:06:05.567Z,18.18
2023-05-15T07:08:37.908Z,18.37
2023-05-15T07:11:10.117Z,18.52
2023-05-15T07:13:42.361Z,18.68
2023-05-15T07:16:14.679Z,18.82
2023-05-15T07:18:47.182Z,18.87
2023-05-15T07:21:19.604Z,18.96
2023-05-15T07:23:51.833Z,19.08
2023-05-15T07:26:32.845Z,19.20
2023-05-15T07:29:09.868Z,19.32
2023-05-15T07:31:44.857Z,19.39
2023-05-15T07:34:17.260Z,19.47
2023-05-15T07:36:49.597Z,19.48
2023-05-15T07:39:21.873Z,19.48
2023-05-15T07:41:54.704Z,19.63
2023-05-15T07:47:20.669Z,20.04
2023-05-15T07:49:52.882Z,20.17
2023-05-15T07:52:25.520Z,20.32
2023-05-15T07:54:57.850Z,20.46
2023-05-15T07:57:30.033Z,20.59
2023-05-15T08:00:06.819Z,20.73
2023-05-15T08:02:39.099Z,20.87
2023-05-15T08:05:12.188Z,20.97
2023-05-15T08:07:44.816Z,21.00
2023-05-15T08:10:16.997Z,20.86
2023-05-15T08:12:50.589Z,20.86
2023-05-15T08:15:23.500Z,20.97
2023-05-15T08:17:56.000Z,21.11
2023-05-15T08:20:28.426Z,21.03
2023-05-15T08:25:44.820Z,20.35
2023-05-15T08:28:17.974Z,20.16
2023-05-15T08:30:50.113Z,20.12
2023-05-15T08:33:22.486Z,20.12
2023-05-15T08:35:54.859Z,20.21
2023-05-15T08:38:27.218Z,20.23
2023-05-15T08:41:04.018Z,20.42
2023-05-15T08:43:39.759Z,20.70
2023-05-15T08:46:12.665Z,21.10
2023-05-15T08:48:45.437Z,21.37
2023-05-15T08:51:19.803Z,21.41
2023-05-15T08:53:52.976Z,21.47
2023-05-15T08:56:25.347Z,21.53
2023-05-15T08:58:57.870Z,21.58
2023-05-15T09:01:31.571Z,21.65
2023-05-15T09:04:04.125Z,21.63
2023-05-15T09:06:37.532Z,21.53
2023-05-15T09:09:13.650Z,21.32
2023-05-15T09:11:49.310Z,21.16
2023-05-15T09:14:21.603Z,21.27
2023-05-15T09:16:53.971Z,21.40
2023-05-15T09:19:26.064Z,21.31
2023-05-15T09:22:16.598Z,21.23
2023-05-15T09:24:49.131Z,21.33
2023-05-15T09:27:22.069Z,21.58
2023-05-15T09:29:56.602Z,21.69
2023-05-15T09:32:29.927Z,21.51
2023-05-15T09:35:02.196Z,21.37
2023-05-15T09:37:35.715Z,21.37
2023-05-15T09:40:12.339Z,21.44
2023-05-15T09:42:52.592Z,21.57
2023-05-15T09:45:25.939Z,21.69
2023-05-15T09:48:00.878Z,21.84
2023-05-15T09:50:38.147Z,21.75
2023-05-15T09:53:14.520Z,21.72
2023-05-15T09:55:48.979Z,21.82
2023-05-15T09:58:23.490Z,21.97
2023-05-15T10:00:55.772Z,22.07
2023-05-15T10:03:28.098Z,22.32
2023-05-15T10:06:04.880Z,22.43
2023-05-15T10:08:37.850Z,22.66
2023-05-15T10:11:10.760Z,22.93
2023-05-15T10:13:43.544Z,23.20
2023-05-15T10:16:17.139Z,23.28
2023-05-15T10:18:52.760Z,23.32
2023-05-15T10:21:24.190Z,23.36
2023-05-15T10:23:58.999Z,23.32
2023-05-15T10:26:38.216Z,23.32
2023-05-15T10:29:13.210Z,23.30
2023-05-15T10:31:46.032Z,23.48
2023-05-15T10:34:20.001Z,23.77
2023-05-15T10:36:53.037Z,24.08
2023-05-15T10:39:28.706Z,24.35
2023-05-15T10:42:03.145Z,24.39
2023-05-15T10:44:35.463Z,24.09
2023-05-15T10:47:08.881Z,23.88
2023-05-15T10:49:41.638Z,23.62
2023-05-15T10:52:13.887Z,23.47
2023-05-15T10:54:46.151Z,23.41
2023-05-15T10:57:18.716Z,23.46
2023-05-15T10:59:51.744Z,23.52
2023-05-15T11:02:25.543Z,23.56
2023-05-15T11:05:02.032Z,23.55
2023-05-15T11:07:34.499Z,23.53
2023-05-15T11:10:40.170Z,23.54
2023-05-15T11:13:12.931Z,23.61
2023-05-15T11:15:49.320Z,23.72
2023-05-15T11:18:22.882Z,23.63
2023-05-15T11:21:12.217Z,23.50
2023-05-15T11:23:48.441Z,23.35
2023-05-15T11:26:35.433Z,23.13
2023-05-15T11:29:21.359Z,23.09
2023-05-15T11:31:52.029Z,23.07
2023-05-15T11:34:34.026Z,23.03
2023-05-15T11:37:11.250Z,22.99
2023-05-15T11:39:45.330Z,22.94
2023-05-15T11:42:18.690Z,22.97
2023-05-15T11:44:51.204Z,23.06
2023-05-15T11:47:24.573Z,23.14
2023-05-15T11:49:56.993Z,23.17
2023-05-15T11:52:31.969Z,23.22
2023-05-15T11:55:04.991Z,23.27
2023-05-15T11:57:38.868Z,23.41
2023-05-15T12:00:13.771Z,23.44
2023-05-15T12:02:46.131Z,23.41
2023-05-15T12:05:18.576Z,23.43
2023-05-15T12:07:51.313Z,23.52
2023-05-15T12:13:14.521Z,23.50
2023-05-15T12:15:47.953Z,23.49
2023-05-15T12:18:20.240Z,23.58
2023-05-15T12:20:55.204Z,23.66
2023-05-15T12:23:28.911Z,23.71
2023-05-15T12:26:03.956Z,23.71
2023-05-15T12:28:37.991Z,23.78
2023-05-15T12:31:13.387Z,23.78
2023-05-15T12:33:46.287Z,23.72
2023-05-15T12:36:21.445Z,23.62
2023-05-15T12:38:54.016Z,23.53
2023-05-15T12:41:30.241Z,23.48
2023-05-15T12:44:02.660Z,23.42
2023-05-15T12:46:35.603Z,23.41
2023-05-15T12:49:07.843Z,23.40
2023-05-15T12:51:45.768Z,23.36
2023-05-15T12:54:21.852Z,23.39
2023-05-15T12:56:57.003Z,23.43
2023-05-15T12:59:30.083Z,23.48
2023-05-15T13:02:03.105Z,23.49
2023-05-15T13:04:37.987Z,23.48
2023-05-15T13:07:12.617Z,23.51
2023-05-15T13:09:46.429Z,23.53
2023-05-15T13:12:23.191Z,23.52
2023-05-15T13:14:55.540Z,23.49
2023-05-15T13:17:30.823Z,23.50
2023-05-15T13:20:01.465Z,23.50
2023-05-15T13:22:33.896Z,23.47
2023-05-15T13:25:07.364Z,23.45
2023-05-15T13:27:39.642Z,23.41
2023-05-15T13:30:13.849Z,23.41
2023-05-15T13:32:46.629Z,23.40
2023-05-15T13:35:19.338Z,23.38
2023-05-15T13:37:51.659Z,23.42
2023-05-15T13:40:24.735Z,23.45
2023-05-15T13:42:57.045Z,23.48
2023-05-15T13:45:29.311Z,23.46
2023-05-15T13:48:01.671Z,23.43
2023-05-15T13:50:34.145Z,23.40
2023-05-15T13:53:06.472Z,23.36
2023-05-15T13:55:38.892Z,23.29
2023-05-15T13:58:11.773Z,23.21
2023-05-15T14:00:45.524Z,23.16
2023-05-15T14:03:17.625Z,23.08
2023-05-15T14:05:49.852Z,23.03
2023-05-15T14:08:22.109Z,22.98
2023-05-15T14:10:54.360Z,22.93
2023-05-15T14:13:26.566Z,22.88
2023-05-15T14:15:59.169Z,22.84
2023-05-15T14:18:32.175Z,22.81
2023-05-15T14:21:04.774Z,22.80
2023-05-15T14:23:37.416Z,22.80
2023-05-15T14:26:09.756Z,22.78
2023-05-15T14:28:41.978Z,22.74
2023-05-15T14:31:14.309Z,22.73
2023-05-15T14:33:46.612Z,22.75
2023-05-15T14:36:19.041Z,22.77
2023-05-15T14:38:51.498Z,22.78
2023-05-15T14:41:23.870Z,22.80
2023-05-15T14:43:56.265Z,22.83
2023-05-15T14:46:28.591Z,22.87
2023-05-15T14:49:00.795Z,22.90
2023-05-15T14:51:33.521Z,22.94
2023-05-15T14:54:06.121Z,22.95
2023-05-15T14:56:38.204Z,22.93
2023-05-15T14:59:10.346Z,22.91
2023-05-15T15:01:43.016Z,22.88
2023-05-15T15:04:15.591Z,22.88
2023-05-15T15:06:49.844Z,22.88
2023-05-15T15:09:21.984Z,22.90
2023-05-15T15:11:54.269Z,22.93
2023-05-15T15:14:27.404Z,22.95
2023-05-15T15:16:59.983Z,22.95
2023-05-15T15:19:32.337Z,22.95
2023-05-15T15:22:04.620Z,22.94
2023-05-15T15:24:36.831Z,22.92
2023-05-15T15:27:09.151Z,22.93
2023-05-15T15:29:41.388Z,22.91
2023-05-15T15:32:13.659Z,22.88
2023-05-15T15:34:46.114Z,22.86
2023-05-15T15:37:18.448Z,22.83
2023-05-15T15:39:50.691Z,22.82
2023-05-15T15:42:22.757Z,22.80
2023-05-15T15:44:54.895Z,22.78
2023-05-15T15:47:29.729Z,22.75
2023-05-15T15:50:02.268Z,22.70
2023-05-15T15:52:34.699Z,22.57
2023-05-15T15:55:08.756Z,22.47
2023-05-15T15:57:41.113Z,22.37
2023-05-15T16:00:15.173Z,22.29
2023-05-15T16:02:47.700Z,22.20
2023-05-15T16:05:19.905Z,22.09
2023-05-15T16:07:52.143Z,22.00
2023-05-15T16:10:24.490Z,21.86
2023-05-15T16:12:57.089Z,21.77
2023-05-15T16:15:29.510Z,21.70
2023-05-15T16:18:01.837Z,21.64
2023-05-15T16:20:35.331Z,21.56
2023-05-15T16:23:09.589Z,21.50
2023-05-15T16:25:41.935Z,21.46
2023-05-15T16:28:14.755Z,21.40
2023-05-15T16:30:49.577Z,21.35
2023-05-15T16:33:22.894Z,21.33
2023-05-15T16:35:55.215Z,21.27
2023-05-15T16:38:27.512Z,21.18
2023-05-15T16:40:59.617Z,21.11
2023-05-15T16:43:31.782Z,21.05
2023-05-15T16:46:04.511Z,20.98
2023-05-15T16:48:37.243Z,20.87
2023-05-15T16:51:09.824Z,20.76
2023-05-15T16:53:42.132Z,20.67
2023-05-15T16:56:14.428Z,20.57
2023-05-15T16:58:46.590Z,20.48
2023-05-15T17:01:19.060Z,20.41
2023-05-15T17:03:52.855Z,20.36
2023-05-15T17:06:25.348Z,20.31
2023-05-15T17:08:57.491Z,20.25
2023-05-15T17:11:29.824Z,20.20
2023-05-15T17:14:02.173Z,20.17
2023-05-15T17:16:34.542Z,20.11
2023-05-15T17:19:06.683Z,20.05
2023-05-15T17:21:39.133Z,20.00
2023-05-15T17:24:11.578Z,19.92
2023-05-15T17:26:43.814Z,19.87
2023-05-15T17:29:16.037Z,19.82
2023-05-15T17:31:48.668Z,19.77
2023-05-15T17:34:20.874Z,19.71
2023-05-15T17:36:53.142Z,19.63
2023-05-15T17:39:25.599Z,19.56
2023-05-15T17:41:57.941Z,19.51
2023-05-15T17:44:31.233Z,19.45
2023-05-15T17:47:03.574Z,19.38
2023-05-15T17:49:35.690Z,19.31
2023-05-15T17:52:08.817Z,19.26
2023-05-15T17:54:41.193Z,19.24
2023-05-15T17:57:13.526Z,19.23
2023-05-15T17:59:45.642Z,19.20
2023-05-15T18:02:17.934Z,19.16
2023-05-15T18:04:51.172Z,19.12
2023-05-15T18:07:23.318Z,19.08
2023-05-15T18:09:55.648Z,19.03
2023-05-15T18:12:27.901Z,18.98
2023-05-15T18:15:00.064Z,18.94
2023-05-15T18:17:32.410Z,18.89
2023-05-15T18:20:05.766Z,18.83
2023-05-15T18:22:38.412Z,18.79
2023-05-15T18:25:11.172Z,18.75
2023-05-15T18:27:43.355Z,18.70
2023-05-15T18:30:16.575Z,18.64
2023-05-15T18:32:48.804Z,18.61
2023-05-15T18:35:21.355Z,18.59
2023-05-15T18:37:53.789Z,18.53
2023-05-15T18:40:26.576Z,18.47
2023-05-15T18:42:59.278Z,18.40
2023-05-15T18:45:31.640Z,18.35
2023-05-15T18:48:03.780Z,18.29
2023-05-15T18:50:36.217Z,18.24
2023-05-15T18:53:08.384Z,18.19
2023-05-15T18:55:40.688Z,18.13
2023-05-15T18:58:12.893Z,18.08
2023-05-15T19:00:45.200Z,18.04
2023-05-15T19:03:17.511Z,17.99
2023-05-15T19:05:50.043Z,17.95
2023-05-15T19:08:22.292Z,17.90
2023-05-15T19:10:54.726Z,17.85
2023-05-15T19:13:29.965Z,17.81
2023-05-15T19:16:03.272Z,17.80
2023-05-15T19:18:35.477Z,17.75
2023-05-15T19:21:08.032Z,17.71
2023-05-15T19:23:40.288Z,17.67
2023-05-15T19:26:12.482Z,17.64
2023-05-15T19:28:44.797Z,17.62
2023-05-15T19:31:27.824Z,17.60
2023-05-15T19:34:03.898Z,17.57
2023-05-15T19:36:36.218Z,17.55
2023-05-15T19:39:08.523Z,17.52
2023-05-15T19:41:40.847Z,17.50
2023-05-15T19:44:13.300Z,17.48
2023-05-15T19:46:46.694Z,17.45
2023-05-15T19:49:18.932Z,17.44
2023-05-15T19:51:51.656Z,17.40
2023-05-15T19:54:24.055Z,17.36
2023-05-15T19:56:58.645Z,17.32
2023-05-15T19:59:31.088Z,17.29
2023-05-15T20:02:05.259Z,17.26
2023-05-15T20:04:38.029Z,17.23
2023-05-15T20:07:10.182Z,17.18
2023-05-15T20:09:42.486Z,17.15
2023-05-15T20:12:14.566Z,17.12
2023-05-15T20:14:52.294Z,17.07
2023-05-15T20:17:24.740Z,17.01
2023-05-15T20:19:59.197Z,16.96
2023-05-15T20:22:31.671Z,16.93
2023-05-15T20:25:04.514Z,16.90
2023-05-15T20:27:36.814Z,16.88
2023-05-15T20:30:10.871Z,16.85
2023-05-15T20:32:43.098Z,16.81
2023-05-15T20:35:16.124Z,16.78
2023-05-15T20:37:48.797Z,16.76
2023-05-15T20:40:23.034Z,16.74
2023-05-15T20:42:56.957Z,16.72
2023-05-15T20:45:29.683Z,16.71
2023-05-15T20:48:01.941Z,16.68
2023-05-15T20:50:34.259Z,16.66
2023-05-15T20:53:07.037Z,16.64
2023-05-15T20:55:39.366Z,16.62
2023-05-15T20:58:11.728Z,16.61
2023-05-15T21:00:43.936Z,16.62
2023-05-15T21:03:16.348Z,16.65
2023-05-15T21:05:49.966Z,16.69
2023-05-15T21:08:22.244Z,16.70
2023-05-15T21:10:55.720Z,16.67
2023-05-15T21:13:28.357Z,16.70
2023-05-15T21:16:00.585Z,16.68
2023-05-15T21:18:32.970Z,16.64
2023-05-15T21:21:07.237Z,16.59
2023-05-15T21:23:39.472Z,16.52
2023-05-15T21:26:12.190Z,16.52
2023-05-15T21:28:44.469Z,16.53
2023-05-15T21:31:16.556Z,16.52
2023-05-15T21:33:48.790Z,16.51
2023-05-15T21:36:21.069Z,16.50
2023-05-15T21:38:53.452Z,16.51
2023-05-15T21:41:26.376Z,16.52
2023-05-15T21:43:58.609Z,16.52
2023-05-15T21:46:30.860Z,16.53
2023-05-15T21:49:03.888Z,16.55
2023-05-15T21:51:36.222Z,16.58
2023-05-15T21:54:08.595Z,16.61
2023-05-15T21:56:41.318Z,16.62
2023-05-15T21:59:14.670Z,16.63
2023-05-15T22:01:47.071Z,16.63
2023-05-15T22:04:19.559Z,16.62
2023-05-15T22:06:52.058Z,16.62
2023-05-15T22:09:24.268Z,16.58
2023-05-15T22:11:56.578Z,16.53
2023-05-15T22:14:35.142Z,16.47
2023-05-15T22:17:07.681Z,16.40
2023-05-15T22:19:42.404Z,16.33
2023-05-15T22:22:15.009Z,16.28
2023-05-15T22:24:47.288Z,16.22
2023-05-15T22:27:19.838Z,16.18
2023-05-15T22:29:52.217Z,16.13
2023-05-15T22:32:24.515Z,16.07
2023-05-15T22:34:57.064Z,16.01
2023-05-15T22:37:29.246Z,15.94
2023-05-15T22:40:01.614Z,15.88
2023-05-15T22:42:33.878Z,15.84
2023-05-15T22:45:07.261Z,15.81
2023-05-15T22:47:40.125Z,15.78
2023-05-15T22:50:13.367Z,15.77
2023-05-15T22:52:45.896Z,15.72
2023-05-15T22:55:21.220Z,15.69
2023-05-15T22:57:53.456Z,15.64
2023-05-15T23:00:26.280Z,15.62
2023-05-15T23:02:59.063Z,15.59
2023-05-15T23:05:31.314Z,15.54
2023-05-15T23:08:56.628Z,15.46
2023-05-15T23:11:29.512Z,15.49
2023-05-15T23:14:02.167Z,15.46
2023-05-15T23:16:34.435Z,15.43
2023-05-15T23:19:06.766Z,15.41
2023-05-15T23:21:39.489Z,15.36
2023-05-15T23:24:11.778Z,15.32
2023-05-15T23:26:44.421Z,15.30
2023-05-15T23:29:16.802Z,15.29
2023-05-15T23:31:49.078Z,15.28
2023-05-15T23:34:21.490Z,15.27
2023-05-15T23:36:53.703Z,15.22
2023-05-15T23:39:25.856Z,15.16
2023-05-15T23:42:00.199Z,15.12
2023-05-15T23:44:32.617Z,15.08
2023-05-15T23:47:05.339Z,15.07
2023-05-15T23:49:37.493Z,15.06
2023-05-15T23:52:10.184Z,15.03
2023-05-15T23:54:42.295Z,15.01
2023-05-15T23:57:14.456Z,15.00
2023-05-15T23:59:46.761Z,14.98
